LFBL/LIG METAR and TAF weather

Enter ICAO airport designator
Station Type Date Time Source
LFBL METAR 2019/06/26 20:30 UTC NOAA

LFBL 262030Z AUTO 12005KT 090V180 CAVOK 31/17 Q1019 NOSIG


Station Type Date Time Source
LFBL Decoded METAR 2019/06/26 20:30 UTC NOAA

Limoges, France (LFBL) 45-52N 001-11E 402M
Jun 26, 2019 - 04:30 PM EDT / 2019.06.26 2030 UTC
Wind: from the ESE (120 degrees) at 6 MPH (5 KT) (direction variable):0
Visibility: greater than 7 mile(s):0
Temperature: 87 F (31 C)
Dew Point: 62 F (17 C)
Relative Humidity: 43%
Pressure (altimeter): 30.09 in. Hg (1019 hPa)
ob: LFBL 262030Z AUTO 12005KT 090V180 CAVOK 31/17 Q1019 NOSIG
cycle: 20

Station Type Date Time Source
LFBL TAF 2019/06/26 18:21 UTC NOAA

TAF TAF LFBL 261700Z 2618/2718 12006KT CAVOK

Example: see airport list